createdAt,value
2022-07-27T00:02:06.222Z,21.10
2022-07-27T00:04:33.582Z,21.19
2022-07-27T00:07:01.749Z,21.17
2022-07-27T00:09:29.045Z,21.06
2022-07-27T00:11:56.248Z,21.15
2022-07-27T00:14:23.505Z,21.07
2022-07-27T00:16:50.753Z,21.04
2022-07-27T00:19:17.995Z,21.03
2022-07-27T00:21:46.297Z,20.97
2022-07-27T00:24:13.915Z,20.83
2022-07-27T00:26:41.157Z,20.40
2022-07-27T00:29:09.096Z,20.27
2022-07-27T00:31:37.158Z,20.28
2022-07-27T00:34:05.468Z,20.41
2022-07-27T00:36:32.737Z,20.50
2022-07-27T00:39:00.142Z,20.59
2022-07-27T00:41:27.430Z,20.75
2022-07-27T00:44:00.182Z,20.71
2022-07-27T00:46:29.146Z,20.61
2022-07-27T00:48:56.529Z,20.51
2022-07-27T00:51:24.666Z,20.50
2022-07-27T00:53:54.166Z,20.53
2022-07-27T00:56:22.390Z,20.58
2022-07-27T00:58:52.554Z,20.69
2022-07-27T01:01:20.611Z,20.90
2022-07-27T01:03:48.382Z,21.00
2022-07-27T01:06:26.761Z,21.06
2022-07-27T01:09:17.645Z,21.13
2022-07-27T01:11:49.221Z,21.14
2022-07-27T01:14:17.749Z,21.13
2022-07-27T01:16:45.175Z,21.20
2022-07-27T01:19:14.972Z,21.31
2022-07-27T01:21:42.627Z,21.38
2022-07-27T01:24:10.954Z,21.45
2022-07-27T01:26:39.723Z,21.45
2022-07-27T01:29:07.282Z,21.48
2022-07-27T01:31:34.774Z,21.50
2022-07-27T01:34:04.276Z,21.48
2022-07-27T01:36:31.672Z,21.54
2022-07-27T01:38:59.107Z,21.60
2022-07-27T01:41:26.559Z,21.66
2022-07-27T01:43:53.902Z,21.72
2022-07-27T01:46:21.218Z,21.74
2022-07-27T01:48:48.827Z,21.78
2022-07-27T01:51:16.110Z,21.82
2022-07-27T01:53:43.283Z,21.85
2022-07-27T01:56:14.201Z,21.86
2022-07-27T01:58:42.832Z,21.81
2022-07-27T02:01:10.556Z,21.86
2022-07-27T02:03:37.930Z,21.88
2022-07-27T02:06:06.145Z,21.90
2022-07-27T02:08:34.291Z,21.92
2022-07-27T02:11:21.225Z,21.85
2022-07-27T02:13:50.194Z,21.82
2022-07-27T02:16:19.191Z,21.79
2022-07-27T02:18:48.597Z,21.81
2022-07-27T02:21:16.464Z,21.80
2022-07-27T02:23:45.412Z,21.75
2022-07-27T02:26:12.991Z,21.79
2022-07-27T02:28:40.295Z,21.80
2022-07-27T02:31:07.498Z,21.77
2022-07-27T02:33:34.845Z,21.81
2022-07-27T02:36:02.941Z,21.78
2022-07-27T02:38:30.294Z,21.76
2022-07-27T02:40:57.684Z,21.74
2022-07-27T02:43:24.933Z,21.69
2022-07-27T02:45:52.498Z,21.72
2022-07-27T02:48:19.937Z,21.76
2022-07-27T02:50:47.216Z,21.72
2022-07-27T02:53:14.489Z,21.75
2022-07-27T02:55:41.842Z,21.78
2022-07-27T02:58:09.124Z,21.71
2022-07-27T03:00:36.430Z,21.64
2022-07-27T03:03:03.933Z,21.62
2022-07-27T03:05:31.339Z,21.63
2022-07-27T03:07:58.592Z,21.61
2022-07-27T03:10:25.886Z,21.60
2022-07-27T03:12:53.206Z,21.51
2022-07-27T03:15:20.448Z,21.52
2022-07-27T03:17:47.719Z,21.45
2022-07-27T03:20:15.072Z,21.39
2022-07-27T03:22:42.959Z,21.27
2022-07-27T03:25:10.711Z,21.27
2022-07-27T03:27:38.578Z,21.21
2022-07-27T03:30:07.850Z,21.19
2022-07-27T03:32:35.102Z,21.08
2022-07-27T03:35:02.713Z,21.14
2022-07-27T03:37:30.044Z,21.17
2022-07-27T03:39:57.382Z,21.17
2022-07-27T03:42:24.726Z,21.12
2022-07-27T03:44:52.073Z,21.12
2022-07-27T03:47:19.324Z,21.04
2022-07-27T03:49:47.694Z,20.93
2022-07-27T03:52:17.885Z,20.92
2022-07-27T03:54:46.934Z,20.86
2022-07-27T03:57:15.087Z,20.73
2022-07-27T03:59:42.426Z,20.70
2022-07-27T04:02:09.981Z,20.84
2022-07-27T04:04:37.385Z,20.94
2022-07-27T04:07:04.631Z,20.98
2022-07-27T04:09:32.089Z,20.88
2022-07-27T04:11:59.347Z,20.82
2022-07-27T04:14:26.832Z,20.77
2022-07-27T04:16:54.166Z,20.69
2022-07-27T04:19:21.517Z,20.64
2022-07-27T04:21:49.015Z,20.67
2022-07-27T04:24:16.363Z,20.69
2022-07-27T04:26:43.811Z,20.76
2022-07-27T04:29:11.383Z,20.76
2022-07-27T04:31:39.113Z,20.71
2022-07-27T04:34:06.333Z,20.73
2022-07-27T04:36:33.565Z,20.72
2022-07-27T04:39:00.935Z,20.72
2022-07-27T04:41:30.328Z,20.67
2022-07-27T04:43:59.151Z,20.66
2022-07-27T04:46:29.686Z,20.74
2022-07-27T04:48:57.896Z,20.78
2022-07-27T04:51:25.389Z,20.93
2022-07-27T04:53:58.256Z,20.99
2022-07-27T04:56:27.416Z,21.02
2022-07-27T04:58:56.116Z,21.03
2022-07-27T05:01:23.638Z,20.97
2022-07-27T05:03:51.903Z,21.05
2022-07-27T05:06:19.718Z,21.12
2022-07-27T05:08:47.017Z,21.15
2022-07-27T05:11:15.431Z,21.13
2022-07-27T05:13:42.717Z,21.24
2022-07-27T05:16:10.913Z,21.31
2022-07-27T05:18:39.254Z,21.35
2022-07-27T05:21:07.750Z,21.39
2022-07-27T05:23:35.406Z,21.53
2022-07-27T05:26:03.094Z,21.62
2022-07-27T05:28:30.626Z,21.69
2022-07-27T05:30:57.857Z,21.75
2022-07-27T05:33:25.519Z,21.85
2022-07-27T05:35:53.115Z,21.90
2022-07-27T05:38:20.391Z,21.97
2022-07-27T05:40:47.830Z,22.02
2022-07-27T05:43:15.344Z,21.98
2022-07-27T05:45:42.714Z,21.93
2022-07-27T05:48:10.013Z,21.92
2022-07-27T05:50:37.650Z,21.89
2022-07-27T05:53:05.034Z,21.80
2022-07-27T05:55:33.445Z,21.80
2022-07-27T05:58:00.697Z,21.77
2022-07-27T06:00:27.936Z,21.75
2022-07-27T06:02:55.221Z,21.70
2022-07-27T06:05:22.562Z,21.84
2022-07-27T06:07:58.945Z,22.04
2022-07-27T06:10:33.360Z,22.04
2022-07-27T06:13:04.666Z,22.13
2022-07-27T06:15:32.372Z,22.31
2022-07-27T06:18:00.410Z,22.55
2022-07-27T06:20:28.193Z,22.74
2022-07-27T06:23:07.797Z,22.84
2022-07-27T06:25:36.243Z,23.03
2022-07-27T06:28:05.904Z,23.07
2022-07-27T06:30:33.561Z,23.07
2022-07-27T06:33:04.987Z,22.83
2022-07-27T06:35:34.154Z,22.73
2022-07-27T06:38:02.816Z,22.74
2022-07-27T06:40:30.350Z,22.89
2022-07-27T06:42:58.815Z,23.12
2022-07-27T06:45:26.937Z,23.43
2022-07-27T06:47:54.226Z,23.70
2022-07-27T06:50:22.162Z,24.03
2022-07-27T06:52:49.571Z,24.15
2022-07-27T06:55:17.623Z,24.33
2022-07-27T06:57:46.234Z,24.26
2022-07-27T07:00:15.009Z,24.37
2022-07-27T07:02:59.205Z,24.40
2022-07-27T07:05:27.086Z,24.49
2022-07-27T07:07:54.414Z,24.66
2022-07-27T07:10:24.056Z,24.87
2022-07-27T07:12:56.061Z,24.73
2022-07-27T07:15:26.661Z,24.89
2022-07-27T07:17:54.442Z,25.06
2022-07-27T07:20:22.209Z,24.87
2022-07-27T07:22:49.702Z,24.95
2022-07-27T07:25:17.914Z,25.22
2022-07-27T07:27:45.211Z,24.77
2022-07-27T07:30:13.303Z,24.55
2022-07-27T07:32:40.662Z,24.74
2022-07-27T07:35:09.110Z,24.90
2022-07-27T07:37:36.423Z,24.91
2022-07-27T07:40:25.296Z,25.02
2022-07-27T07:43:02.464Z,25.21
2022-07-27T07:45:34.726Z,25.32
2022-07-27T07:48:02.077Z,25.24
2022-07-27T07:50:29.497Z,25.16
2022-07-27T07:52:56.840Z,25.06
2022-07-27T07:55:28.817Z,24.99
2022-07-27T07:57:57.712Z,25.08
2022-07-27T08:00:25.195Z,24.95
2022-07-27T08:02:55.902Z,24.77
2022-07-27T08:05:24.224Z,24.52
2022-07-27T08:07:52.857Z,24.61
2022-07-27T08:10:22.519Z,24.92
2022-07-27T08:12:56.330Z,24.98
2022-07-27T08:15:34.897Z,25.34
2022-07-27T08:18:05.687Z,25.60
2022-07-27T08:20:33.600Z,25.43
2022-07-27T08:23:00.917Z,25.46
2022-07-27T08:25:28.341Z,25.47
2022-07-27T08:27:56.210Z,25.49
2022-07-27T08:30:24.711Z,25.62
2022-07-27T08:33:01.186Z,25.57
2022-07-27T08:35:31.939Z,25.72
2022-07-27T08:38:01.981Z,25.53
2022-07-27T08:40:40.136Z,25.47
2022-07-27T08:43:09.830Z,25.69
2022-07-27T08:45:38.475Z,25.79
2022-07-27T08:48:06.590Z,25.63
2022-07-27T08:50:35.262Z,26.02
2022-07-27T08:53:07.570Z,26.07
2022-07-27T08:55:39.599Z,26.10
2022-07-27T08:58:08.972Z,26.13
2022-07-27T09:00:42.468Z,26.34
2022-07-27T09:03:19.609Z,26.24
2022-07-27T09:05:55.668Z,26.34
2022-07-27T09:08:30.515Z,26.49
2022-07-27T09:11:00.222Z,26.68
2022-07-27T09:13:34.125Z,26.84
2022-07-27T09:16:22.177Z,26.42
2022-07-27T09:18:58.801Z,26.54
2022-07-27T09:21:26.278Z,26.57
2022-07-27T09:24:23.250Z,26.62
2022-07-27T09:27:04.210Z,26.49
2022-07-27T09:29:36.630Z,26.77
2022-07-27T09:32:15.821Z,26.79
2022-07-27T09:34:43.867Z,26.91
2022-07-27T09:37:12.247Z,26.85
2022-07-27T09:39:39.559Z,26.91
2022-07-27T09:43:03.554Z,27.06
2022-07-27T09:45:03.856Z,26.84
2022-07-27T09:47:31.440Z,27.32
2022-07-27T09:50:20.385Z,27.62
2022-07-27T09:52:48.857Z,27.78
2022-07-27T09:55:21.329Z,27.99
2022-07-27T09:57:54.294Z,28.06
2022-07-27T10:00:24.431Z,28.18
2022-07-27T10:02:53.624Z,28.32
2022-07-27T10:05:22.880Z,28.42
2022-07-27T10:07:54.019Z,28.40
2022-07-27T10:10:23.554Z,27.96
2022-07-27T10:12:55.001Z,27.36
2022-07-27T10:15:24.980Z,27.71
2022-07-27T10:18:08.910Z,28.29
2022-07-27T10:20:39.879Z,28.58
2022-07-27T10:23:07.723Z,28.77
2022-07-27T10:25:38.263Z,29.15
2022-07-27T10:28:19.270Z,29.31
2022-07-27T10:30:52.177Z,29.20
2022-07-27T10:33:50.357Z,29.30
2022-07-27T10:36:24.450Z,29.05
2022-07-27T10:39:00.276Z,28.90
2022-07-27T10:41:43.745Z,29.10
2022-07-27T10:44:23.768Z,29.21
2022-07-27T10:47:04.044Z,29.37
2022-07-27T10:49:40.523Z,29.37
2022-07-27T10:52:50.896Z,29.59
2022-07-27T10:55:33.951Z,29.76
2022-07-27T10:58:10.117Z,29.61
2022-07-27T11:00:53.995Z,29.96
2022-07-27T11:03:35.187Z,30.17
2022-07-27T11:06:32.932Z,30.26
2022-07-27T11:09:53.206Z,30.23
2022-07-27T11:11:53.646Z,30.15
2022-07-27T11:14:29.447Z,30.27
2022-07-27T11:17:48.294Z,30.42
2022-07-27T11:20:00.669Z,30.16
2022-07-27T11:23:09.108Z,30.24
2022-07-27T11:25:27.278Z,30.26
2022-07-27T11:27:54.516Z,30.38
2022-07-27T11:30:28.623Z,30.85
2022-07-27T11:32:56.736Z,31.67
2022-07-27T11:35:24.962Z,32.20
2022-07-27T11:38:07.647Z,31.75
2022-07-27T11:40:59.781Z,32.30
2022-07-27T11:43:45.582Z,32.84
2022-07-27T11:46:27.478Z,33.27
2022-07-27T11:49:10.164Z,33.56
2022-07-27T11:51:43.733Z,33.78
2022-07-27T11:54:21.698Z,33.66
2022-07-27T11:57:03.318Z,34.25
2022-07-27T11:59:34.842Z,34.17
2022-07-27T12:02:13.459Z,33.90
2022-07-27T12:05:00.545Z,34.24
2022-07-27T12:07:33.684Z,33.95
2022-07-27T12:10:06.790Z,33.80
2022-07-27T12:12:37.409Z,33.88
2022-07-27T12:15:45.807Z,35.06
2022-07-27T12:18:08.005Z,35.26
2022-07-27T12:20:37.341Z,34.59
2022-07-27T12:23:08.633Z,35.25
2022-07-27T12:25:37.391Z,34.28
2022-07-27T12:28:17.872Z,34.42
2022-07-27T12:30:51.144Z,34.35
2022-07-27T12:33:37.177Z,35.02
2022-07-27T12:36:08.306Z,35.65
2022-07-27T12:38:48.669Z,35.53
2022-07-27T12:41:30.565Z,35.22
2022-07-27T12:44:12.822Z,35.92
2022-07-27T12:47:28.207Z,36.14
2022-07-27T12:50:16.564Z,36.15
2022-07-27T12:52:51.696Z,37.12
2022-07-27T12:55:22.954Z,35.71
2022-07-27T12:57:56.135Z,36.10
2022-07-27T13:00:33.735Z,35.50
2022-07-27T13:03:03.293Z,36.35
2022-07-27T13:05:32.765Z,36.36
2022-07-27T13:08:01.962Z,36.06
2022-07-27T13:10:29.570Z,36.63
2022-07-27T13:12:57.736Z,36.83
2022-07-27T13:15:25.770Z,36.57
2022-07-27T13:17:53.472Z,37.12
2022-07-27T13:20:21.218Z,37.04
2022-07-27T13:22:48.845Z,37.59
2022-07-27T13:25:17.851Z,37.12
2022-07-27T13:27:49.550Z,37.33
2022-07-27T13:30:19.030Z,37.80
2022-07-27T13:32:46.992Z,37.30
2022-07-27T13:35:16.853Z,38.12
2022-07-27T13:37:45.470Z,38.51
2022-07-27T13:40:14.796Z,38.03
2022-07-27T13:42:42.063Z,38.27
2022-07-27T13:45:11.886Z,37.70
2022-07-27T13:47:41.269Z,38.57
2022-07-27T13:50:18.197Z,38.69
2022-07-27T13:52:48.786Z,38.79
2022-07-27T13:55:17.716Z,39.87
2022-07-27T13:57:47.047Z,39.24
2022-07-27T14:00:17.022Z,38.35
2022-07-27T14:02:45.530Z,38.72
2022-07-27T14:05:31.677Z,39.34
2022-07-27T14:07:59.984Z,39.11
2022-07-27T14:13:26.427Z,40.10
2022-07-27T14:15:55.477Z,40.06
2022-07-27T14:18:27.503Z,39.56
2022-07-27T14:20:58.597Z,39.21
2022-07-27T14:23:27.850Z,39.20
2022-07-27T14:25:57.964Z,39.75
2022-07-27T14:28:27.396Z,40.30
2022-07-27T14:30:55.817Z,40.68
2022-07-27T14:33:25.127Z,40.82
2022-07-27T14:35:52.777Z,40.09
2022-07-27T14:38:27.869Z,40.68
2022-07-27T14:41:00.778Z,40.65
2022-07-27T14:43:29.654Z,39.83
2022-07-27T14:45:59.173Z,39.80
2022-07-27T14:48:42.548Z,40.22
2022-07-27T14:51:14.046Z,40.79
2022-07-27T14:53:41.359Z,40.82
2022-07-27T14:56:08.565Z,42.33
2022-07-27T14:58:36.221Z,41.18
2022-07-27T15:01:03.811Z,41.54
2022-07-27T15:03:31.206Z,42.14
2022-07-27T15:05:58.444Z,42.12
2022-07-27T15:08:25.743Z,40.52
2022-07-27T15:10:53.102Z,40.50
2022-07-27T15:13:20.430Z,41.24
2022-07-27T15:15:48.875Z,42.65
2022-07-27T15:18:19.269Z,42.87
2022-07-27T15:20:47.687Z,42.32
2022-07-27T15:23:16.268Z,41.64
2022-07-27T15:25:43.644Z,42.50
2022-07-27T15:28:11.925Z,42.93
2022-07-27T15:30:39.708Z,43.83
2022-07-27T15:33:07.561Z,43.08
2022-07-27T15:35:35.155Z,42.95
2022-07-27T15:38:02.475Z,43.21
2022-07-27T15:40:38.737Z,42.77
2022-07-27T15:43:14.053Z,41.81
2022-07-27T15:45:48.097Z,41.70
2022-07-27T15:48:20.233Z,42.24
2022-07-27T15:50:51.708Z,43.56
2022-07-27T15:53:21.638Z,43.90
2022-07-27T15:55:49.631Z,43.03
2022-07-27T15:58:19.946Z,43.64
2022-07-27T16:00:53.017Z,43.42
2022-07-27T16:03:24.292Z,42.34
2022-07-27T16:05:54.046Z,43.21
2022-07-27T16:08:21.475Z,42.06
2022-07-27T16:10:49.418Z,43.33
2022-07-27T16:13:17.488Z,43.43
2022-07-27T16:16:03.984Z,43.33
2022-07-27T16:18:35.318Z,44.29
2022-07-27T16:21:06.293Z,43.45
2022-07-27T16:23:33.704Z,41.93
2022-07-27T16:26:05.682Z,42.00
2022-07-27T16:28:41.020Z,41.80
2022-07-27T16:31:11.414Z,42.36
2022-07-27T16:33:40.189Z,43.09
2022-07-27T16:36:08.815Z,42.35
2022-07-27T16:38:39.317Z,43.06
2022-07-27T16:41:22.869Z,42.32
2022-07-27T16:43:50.652Z,42.53
2022-07-27T16:46:18.078Z,42.10
2022-07-27T16:48:46.334Z,42.65
2022-07-27T16:51:15.984Z,42.68
2022-07-27T16:53:47.853Z,41.73
2022-07-27T16:56:15.579Z,41.42
2022-07-27T16:58:44.522Z,42.54
2022-07-27T17:01:21.683Z,41.97
2022-07-27T17:03:56.647Z,41.32
2022-07-27T17:06:26.179Z,41.90
2022-07-27T17:08:54.436Z,42.12
2022-07-27T17:11:22.430Z,41.96
2022-07-27T17:13:51.257Z,40.85
2022-07-27T17:16:27.501Z,40.43
2022-07-27T17:18:55.169Z,41.19
2022-07-27T17:21:22.597Z,41.28
2022-07-27T17:23:49.992Z,40.59
2022-07-27T17:26:17.471Z,40.55
2022-07-27T17:28:44.777Z,38.22
2022-07-27T17:31:12.968Z,35.54
2022-07-27T17:33:41.558Z,34.24
2022-07-27T17:36:15.033Z,33.94
2022-07-27T17:38:45.249Z,33.49
2022-07-27T17:41:18.124Z,33.15
2022-07-27T17:43:49.456Z,32.71
2022-07-27T17:46:17.829Z,32.61
2022-07-27T17:48:45.249Z,32.51
2022-07-27T17:51:12.682Z,32.25
2022-07-27T17:53:40.085Z,31.91
2022-07-27T17:56:08.444Z,31.93
2022-07-27T17:58:39.518Z,31.77
2022-07-27T18:01:08.275Z,31.61
2022-07-27T18:03:35.655Z,31.27
2022-07-27T18:06:04.231Z,31.09
2022-07-27T18:08:31.725Z,30.76
2022-07-27T18:10:59.585Z,30.49
2022-07-27T18:13:38.995Z,30.51
2022-07-27T18:16:12.097Z,30.46
2022-07-27T18:18:41.864Z,30.34
2022-07-27T18:21:10.780Z,30.25
2022-07-27T18:23:39.747Z,30.17
2022-07-27T18:26:07.389Z,30.07
2022-07-27T18:28:39.467Z,30.02
2022-07-27T18:31:09.463Z,29.68
2022-07-27T18:33:37.826Z,29.50
2022-07-27T18:36:06.257Z,29.33
2022-07-27T18:38:33.758Z,29.31
2022-07-27T18:41:01.070Z,29.22
2022-07-27T18:43:28.422Z,29.10
2022-07-27T18:45:56.910Z,29.02
2022-07-27T18:48:25.762Z,28.86
2022-07-27T18:50:53.552Z,28.78
2022-07-27T18:53:20.836Z,28.67
2022-07-27T18:55:52.754Z,28.55
2022-07-27T18:58:22.892Z,28.40
2022-07-27T19:00:50.613Z,28.43
2022-07-27T19:03:19.604Z,28.31
2022-07-27T19:05:49.389Z,28.18
2022-07-27T19:08:19.793Z,28.02
2022-07-27T19:10:47.420Z,27.98
2022-07-27T19:13:14.764Z,27.89
2022-07-27T19:15:42.494Z,27.77
2022-07-27T19:18:09.851Z,27.77
2022-07-27T19:20:37.650Z,27.70
2022-07-27T19:23:08.180Z,27.63
2022-07-27T19:25:35.598Z,27.60
2022-07-27T19:28:04.450Z,27.51
2022-07-27T19:30:31.994Z,27.48
2022-07-27T19:32:59.782Z,27.49
2022-07-27T19:35:27.211Z,27.45
2022-07-27T19:37:54.423Z,27.40
2022-07-27T19:43:11.601Z,27.27
2022-07-27T19:45:39.095Z,27.28
2022-07-27T19:48:08.170Z,27.21
2022-07-27T19:50:35.637Z,27.11
2022-07-27T19:53:04.107Z,26.98
2022-07-27T19:55:31.399Z,26.91
2022-07-27T19:57:59.505Z,26.85
2022-07-27T20:00:26.964Z,26.85
2022-07-27T20:02:54.376Z,26.84
2022-07-27T20:05:21.816Z,26.80
2022-07-27T20:07:49.123Z,26.75
2022-07-27T20:10:16.704Z,26.64
2022-07-27T20:12:43.973Z,26.55
2022-07-27T20:15:11.545Z,26.50
2022-07-27T20:17:40.759Z,26.47
2022-07-27T20:20:10.940Z,26.42
2022-07-27T20:22:41.321Z,26.39
2022-07-27T20:25:14.910Z,26.34
2022-07-27T20:27:42.801Z,26.29
2022-07-27T20:30:14.510Z,26.28
2022-07-27T20:32:45.804Z,26.29
2022-07-27T20:35:13.654Z,26.21
2022-07-27T20:37:42.202Z,26.20
2022-07-27T20:40:13.125Z,26.15
2022-07-27T20:42:42.992Z,26.15
2022-07-27T20:45:14.274Z,26.15
2022-07-27T20:47:43.095Z,26.13
2022-07-27T20:50:14.794Z,26.13
2022-07-27T20:52:43.350Z,26.07
2022-07-27T20:55:11.885Z,26.05
2022-07-27T20:57:39.293Z,26.08
2022-07-27T21:00:08.685Z,26.11
2022-07-27T21:02:36.443Z,26.15
2022-07-27T21:05:06.090Z,26.17
2022-07-27T21:07:34.179Z,26.16
2022-07-27T21:10:01.499Z,26.15
2022-07-27T21:12:28.754Z,26.14
2022-07-27T21:14:56.110Z,26.18
2022-07-27T21:17:23.656Z,26.19
2022-07-27T21:19:51.062Z,26.13
2022-07-27T21:22:20.119Z,26.09
2022-07-27T21:24:47.498Z,26.04
2022-07-27T21:27:20.921Z,26.05
2022-07-27T21:29:49.166Z,26.11
2022-07-27T21:32:17.775Z,26.14
2022-07-27T21:34:45.529Z,26.09
2022-07-27T21:37:12.912Z,26.04
2022-07-27T21:39:40.258Z,26.04
2022-07-27T21:42:07.662Z,26.05
2022-07-27T21:44:35.022Z,26.00
2022-07-27T21:47:03.589Z,26.03
2022-07-27T21:49:34.569Z,25.95
2022-07-27T21:52:02.359Z,25.84
2022-07-27T21:54:29.668Z,25.80
2022-07-27T21:56:56.947Z,25.70
2022-07-27T21:59:24.299Z,25.66
2022-07-27T22:01:51.642Z,25.61
2022-07-27T22:04:19.055Z,25.61
2022-07-27T22:06:46.711Z,25.59
2022-07-27T22:09:14.280Z,25.54
2022-07-27T22:11:42.478Z,25.50
2022-07-27T22:14:09.833Z,25.52
2022-07-27T22:16:37.153Z,25.51
2022-07-27T22:19:04.780Z,25.55
2022-07-27T22:21:32.095Z,25.57
2022-07-27T22:23:59.365Z,25.58
2022-07-27T22:26:26.801Z,25.55
2022-07-27T22:28:54.231Z,25.51
2022-07-27T22:31:23.416Z,25.48
2022-07-27T22:33:51.313Z,25.51
2022-07-27T22:36:18.823Z,25.45
2022-07-27T22:38:46.346Z,25.42
2022-07-27T22:41:13.884Z,25.42
2022-07-27T22:43:41.537Z,25.34
2022-07-27T22:46:10.028Z,25.29
2022-07-27T22:48:37.912Z,25.24
2022-07-27T22:51:05.270Z,25.27
2022-07-27T22:53:32.615Z,25.28
2022-07-27T22:56:00.390Z,25.28
2022-07-27T22:58:28.016Z,25.26
2022-07-27T23:00:59.360Z,25.25
2022-07-27T23:03:26.933Z,25.16
2022-07-27T23:05:54.618Z,25.14
2022-07-27T23:08:21.891Z,25.18
2022-07-27T23:10:49.622Z,25.14
2022-07-27T23:13:22.848Z,25.20
2022-07-27T23:15:50.571Z,25.27
2022-07-27T23:18:18.302Z,25.33
2022-07-27T23:20:46.143Z,25.32
2022-07-27T23:23:15.828Z,25.22
2022-07-27T23:25:47.008Z,25.06
2022-07-27T23:28:15.476Z,24.93
2022-07-27T23:30:43.033Z,24.87
2022-07-27T23:33:10.467Z,24.83
2022-07-27T23:35:37.850Z,24.76
2022-07-27T23:38:05.237Z,24.71
2022-07-27T23:40:32.529Z,24.59
2022-07-27T23:42:59.900Z,24.54
2022-07-27T23:45:27.983Z,24.52
2022-07-27T23:47:55.585Z,24.49
2022-07-27T23:50:23.242Z,24.51
2022-07-27T23:52:50.668Z,24.54
2022-07-27T23:55:18.103Z,24.47
2022-07-27T23:57:45.325Z,24.36
